sensor_id;sensor_type;location;lat;lon;timestamp;P1;durP1;ratioP1;P2;durP2;ratioP2
75649;SDS011;64245;51.282;22.494;2023-03-14T00:01:29;6.88;;;4.05;;
75649;SDS011;64245;51.282;22.494;2023-03-14T00:03:55;5.80;;;3.38;;
75649;SDS011;64245;51.282;22.494;2023-03-14T00:06:20;6.38;;;3.40;;
75649;SDS011;64245;51.282;22.494;2023-03-14T00:08:46;7.63;;;4.10;;
75649;SDS011;64245;51.282;22.494;2023-03-14T00:11:14;8.82;;;4.07;;
75649;SDS011;64245;51.282;22.494;2023-03-14T00:13:41;6.60;;;3.65;;
75649;SDS011;64245;51.282;22.494;2023-03-14T00:16:08;7.03;;;3.90;;
75649;SDS011;64245;51.282;22.494;2023-03-14T00:18:35;6.78;;;3.83;;
75649;SDS011;64245;51.282;22.494;2023-03-14T00:21:02;7.03;;;3.80;;
75649;SDS011;64245;51.282;22.494;2023-03-14T00:23:30;5.95;;;3.50;;
75649;SDS011;64245;51.282;22.494;2023-03-14T00:26:00;6.53;;;3.65;;
75649;SDS011;64245;51.282;22.494;2023-03-14T00:28:27;6.40;;;4.22;;
75649;SDS011;64245;51.282;22.494;2023-03-14T00:30:53;8.35;;;4.30;;
75649;SDS011;64245;51.282;22.494;2023-03-14T00:33:19;6.18;;;3.17;;
75649;SDS011;64245;51.282;22.494;2023-03-14T00:38:27;6.93;;;3.70;;
75649;SDS011;64245;51.282;22.494;2023-03-14T00:40:53;6.15;;;3.20;;
75649;SDS011;64245;51.282;22.494;2023-03-14T00:43:19;7.28;;;4.25;;
75649;SDS011;64245;51.282;22.494;2023-03-14T00:45:49;7.28;;;4.07;;
75649;SDS011;64245;51.282;22.494;2023-03-14T00:48:15;8.75;;;3.88;;
75649;SDS011;64245;51.282;22.494;2023-03-14T00:50:41;4.63;;;2.97;;
75649;SDS011;64245;51.282;22.494;2023-03-14T00:53:06;5.88;;;3.42;;
75649;SDS011;64245;51.282;22.494;2023-03-14T00:55:35;6.03;;;4.00;;
75649;SDS011;64245;51.282;22.494;2023-03-14T00:58:01;4.72;;;3.10;;
75649;SDS011;64245;51.282;22.494;2023-03-14T01:00:27;6.75;;;3.20;;
75649;SDS011;64245;51.282;22.494;2023-03-14T01:02:53;6.85;;;3.50;;
75649;SDS011;64245;51.282;22.494;2023-03-14T01:05:18;4.80;;;3.22;;
75649;SDS011;64245;51.282;22.494;2023-03-14T01:07:44;6.43;;;3.40;;
75649;SDS011;64245;51.282;22.494;2023-03-14T01:10:10;7.13;;;3.72;;
75649;SDS011;64245;51.282;22.494;2023-03-14T01:12:36;8.70;;;3.90;;
75649;SDS011;64245;51.282;22.494;2023-03-14T01:15:01;6.38;;;3.33;;
75649;SDS011;64245;51.282;22.494;2023-03-14T01:17:27;7.32;;;3.50;;
75649;SDS011;64245;51.282;22.494;2023-03-14T01:19:53;6.60;;;3.80;;
75649;SDS011;64245;51.282;22.494;2023-03-14T01:22:18;6.20;;;3.85;;
75649;SDS011;64245;51.282;22.494;2023-03-14T01:24:44;4.18;;;2.40;;
75649;SDS011;64245;51.282;22.494;2023-03-14T01:27:09;6.50;;;3.55;;
75649;SDS011;64245;51.282;22.494;2023-03-14T01:29:35;6.45;;;3.67;;
75649;SDS011;64245;51.282;22.494;2023-03-14T01:32:00;3.72;;;2.60;;
75649;SDS011;64245;51.282;22.494;2023-03-14T01:34:26;6.25;;;2.83;;
75649;SDS011;64245;51.282;22.494;2023-03-14T01:36:52;3.58;;;1.92;;
75649;SDS011;64245;51.282;22.494;2023-03-14T01:39:17;7.03;;;3.60;;
75649;SDS011;64245;51.282;22.494;2023-03-14T01:41:43;5.40;;;3.08;;
75649;SDS011;64245;51.282;22.494;2023-03-14T01:44:12;5.72;;;3.40;;
75649;SDS011;64245;51.282;22.494;2023-03-14T01:46:39;4.63;;;3.08;;
75649;SDS011;64245;51.282;22.494;2023-03-14T01:52:00;4.85;;;2.80;;
75649;SDS011;64245;51.282;22.494;2023-03-14T01:54:41;4.47;;;2.33;;
75649;SDS011;64245;51.282;22.494;2023-03-14T01:57:13;4.72;;;2.25;;
75649;SDS011;64245;51.282;22.494;2023-03-14T02:00:08;5.30;;;3.22;;
75649;SDS011;64245;51.282;22.494;2023-03-14T02:02:37;6.57;;;3.40;;
75649;SDS011;64245;51.282;22.494;2023-03-14T02:05:08;3.97;;;3.05;;
75649;SDS011;64245;51.282;22.494;2023-03-14T02:07:37;5.25;;;2.85;;
75649;SDS011;64245;51.282;22.494;2023-03-14T02:10:11;5.45;;;3.35;;
75649;SDS011;64245;51.282;22.494;2023-03-14T02:12:37;4.95;;;2.90;;
75649;SDS011;64245;51.282;22.494;2023-03-14T02:15:04;5.93;;;2.90;;
75649;SDS011;64245;51.282;22.494;2023-03-14T02:17:30;5.55;;;3.13;;
75649;SDS011;64245;51.282;22.494;2023-03-14T02:22:33;4.20;;;2.85;;
75649;SDS011;64245;51.282;22.494;2023-03-14T02:27:40;3.67;;;2.58;;
75649;SDS011;64245;51.282;22.494;2023-03-14T02:30:14;7.95;;;2.47;;
75649;SDS011;64245;51.282;22.494;2023-03-14T02:32:46;3.13;;;2.83;;
75649;SDS011;64245;51.282;22.494;2023-03-14T02:35:18;3.35;;;2.90;;
75649;SDS011;64245;51.282;22.494;2023-03-14T02:37:54;6.82;;;2.53;;
75649;SDS011;64245;51.282;22.494;2023-03-14T02:40:24;2.70;;;1.83;;
75649;SDS011;64245;51.282;22.494;2023-03-14T02:42:50;5.63;;;2.85;;
75649;SDS011;64245;51.282;22.494;2023-03-14T02:48:05;6.20;;;2.85;;
75649;SDS011;64245;51.282;22.494;2023-03-14T02:50:34;5.57;;;2.63;;
75649;SDS011;64245;51.282;22.494;2023-03-14T02:52:59;5.13;;;2.10;;
75649;SDS011;64245;51.282;22.494;2023-03-14T02:55:25;3.13;;;2.35;;
75649;SDS011;64245;51.282;22.494;2023-03-14T02:57:52;3.90;;;2.42;;
75649;SDS011;64245;51.282;22.494;2023-03-14T03:00:18;2.78;;;2.22;;
75649;SDS011;64245;51.282;22.494;2023-03-14T03:02:44;4.40;;;2.70;;
75649;SDS011;64245;51.282;22.494;2023-03-14T03:05:11;4.18;;;2.88;;
75649;SDS011;64245;51.282;22.494;2023-03-14T03:07:36;4.32;;;2.60;;
75649;SDS011;64245;51.282;22.494;2023-03-14T03:10:03;3.55;;;2.47;;
75649;SDS011;64245;51.282;22.494;2023-03-14T03:12:28;4.47;;;2.35;;
75649;SDS011;64245;51.282;22.494;2023-03-14T03:14:54;4.70;;;2.58;;
75649;SDS011;64245;51.282;22.494;2023-03-14T03:17:20;3.97;;;2.63;;
75649;SDS011;64245;51.282;22.494;2023-03-14T03:19:45;3.97;;;2.60;;
75649;SDS011;64245;51.282;22.494;2023-03-14T03:22:11;4.43;;;2.70;;
75649;SDS011;64245;51.282;22.494;2023-03-14T03:24:36;3.88;;;2.15;;
75649;SDS011;64245;51.282;22.494;2023-03-14T03:27:02;6.22;;;2.38;;
75649;SDS011;64245;51.282;22.494;2023-03-14T03:29:28;4.10;;;2.00;;
75649;SDS011;64245;51.282;22.494;2023-03-14T03:31:53;4.63;;;2.60;;
75649;SDS011;64245;51.282;22.494;2023-03-14T03:34:19;3.10;;;2.10;;
75649;SDS011;64245;51.282;22.494;2023-03-14T03:36:45;5.03;;;3.15;;
75649;SDS011;64245;51.282;22.494;2023-03-14T03:39:10;5.72;;;2.40;;
75649;SDS011;64245;51.282;22.494;2023-03-14T03:41:36;3.90;;;2.67;;
75649;SDS011;64245;51.282;22.494;2023-03-14T03:44:02;3.65;;;2.65;;
75649;SDS011;64245;51.282;22.494;2023-03-14T03:46:27;3.15;;;2.00;;
75649;SDS011;64245;51.282;22.494;2023-03-14T03:48:54;3.45;;;2.75;;
75649;SDS011;64245;51.282;22.494;2023-03-14T03:51:23;4.47;;;2.83;;
75649;SDS011;64245;51.282;22.494;2023-03-14T03:53:49;4.25;;;2.40;;
75649;SDS011;64245;51.282;22.494;2023-03-14T03:56:14;3.70;;;1.80;;
75649;SDS011;64245;51.282;22.494;2023-03-14T03:58:40;5.88;;;2.65;;
75649;SDS011;64245;51.282;22.494;2023-03-14T04:01:07;4.28;;;2.60;;
75649;SDS011;64245;51.282;22.494;2023-03-14T04:03:33;3.45;;;2.50;;
75649;SDS011;64245;51.282;22.494;2023-03-14T04:06:00;4.18;;;2.67;;
75649;SDS011;64245;51.282;22.494;2023-03-14T04:08:30;3.55;;;2.67;;
75649;SDS011;64245;51.282;22.494;2023-03-14T04:10:56;2.15;;;1.73;;
75649;SDS011;64245;51.282;22.494;2023-03-14T04:13:24;3.97;;;2.40;;
75649;SDS011;64245;51.282;22.494;2023-03-14T04:15:50;4.68;;;2.78;;
75649;SDS011;64245;51.282;22.494;2023-03-14T04:18:16;2.65;;;2.10;;
75649;SDS011;64245;51.282;22.494;2023-03-14T04:20:41;2.42;;;1.73;;
75649;SDS011;64245;51.282;22.494;2023-03-14T04:23:08;3.60;;;2.47;;
75649;SDS011;64245;51.282;22.494;2023-03-14T04:25:34;3.92;;;2.75;;
75649;SDS011;64245;51.282;22.494;2023-03-14T04:28:00;3.15;;;2.00;;
75649;SDS011;64245;51.282;22.494;2023-03-14T04:30:26;5.57;;;3.10;;
75649;SDS011;64245;51.282;22.494;2023-03-14T04:32:51;6.97;;;2.63;;
75649;SDS011;64245;51.282;22.494;2023-03-14T04:35:17;2.78;;;2.05;;
75649;SDS011;64245;51.282;22.494;2023-03-14T04:37:43;4.57;;;2.67;;
75649;SDS011;64245;51.282;22.494;2023-03-14T04:40:09;3.90;;;2.58;;
75649;SDS011;64245;51.282;22.494;2023-03-14T04:42:35;4.30;;;2.55;;
75649;SDS011;64245;51.282;22.494;2023-03-14T04:45:01;4.50;;;2.85;;
75649;SDS011;64245;51.282;22.494;2023-03-14T04:47:27;5.18;;;2.78;;
75649;SDS011;64245;51.282;22.494;2023-03-14T04:49:53;4.93;;;2.25;;
75649;SDS011;64245;51.282;22.494;2023-03-14T04:52:18;3.85;;;2.33;;
75649;SDS011;64245;51.282;22.494;2023-03-14T04:54:44;4.53;;;2.42;;
75649;SDS011;64245;51.282;22.494;2023-03-14T04:57:10;3.35;;;2.47;;
75649;SDS011;64245;51.282;22.494;2023-03-14T04:59:35;4.15;;;2.22;;
75649;SDS011;64245;51.282;22.494;2023-03-14T05:02:01;3.10;;;2.08;;
75649;SDS011;64245;51.282;22.494;2023-03-14T05:04:26;3.80;;;2.28;;
75649;SDS011;64245;51.282;22.494;2023-03-14T05:06:52;3.58;;;2.25;;
75649;SDS011;64245;51.282;22.494;2023-03-14T05:09:18;3.85;;;2.25;;
75649;SDS011;64245;51.282;22.494;2023-03-14T05:11:43;2.83;;;2.13;;
75649;SDS011;64245;51.282;22.494;2023-03-14T05:14:09;4.72;;;2.42;;
75649;SDS011;64245;51.282;22.494;2023-03-14T05:16:35;4.13;;;2.08;;
75649;SDS011;64245;51.282;22.494;2023-03-14T05:19:00;3.85;;;2.05;;
75649;SDS011;64245;51.282;22.494;2023-03-14T05:21:27;4.13;;;2.15;;
75649;SDS011;64245;51.282;22.494;2023-03-14T05:23:52;2.78;;;1.77;;
75649;SDS011;64245;51.282;22.494;2023-03-14T05:26:18;2.35;;;1.65;;
75649;SDS011;64245;51.282;22.494;2023-03-14T05:28:43;4.45;;;2.22;;
75649;SDS011;64245;51.282;22.494;2023-03-14T05:31:10;6.57;;;2.70;;
75649;SDS011;64245;51.282;22.494;2023-03-14T05:33:35;3.58;;;2.60;;
75649;SDS011;64245;51.282;22.494;2023-03-14T05:36:01;4.20;;;2.33;;
75649;SDS011;64245;51.282;22.494;2023-03-14T05:38:27;4.97;;;2.42;;
75649;SDS011;64245;51.282;22.494;2023-03-14T05:40:53;6.22;;;3.25;;
75649;SDS011;64245;51.282;22.494;2023-03-14T05:43:18;4.00;;;2.22;;
75649;SDS011;64245;51.282;22.494;2023-03-14T05:45:44;4.07;;;2.15;;
75649;SDS011;64245;51.282;22.494;2023-03-14T05:48:09;3.60;;;2.08;;
75649;SDS011;64245;51.282;22.494;2023-03-14T05:50:36;3.83;;;2.08;;
75649;SDS011;64245;51.282;22.494;2023-03-14T05:53:01;4.82;;;2.08;;
75649;SDS011;64245;51.282;22.494;2023-03-14T05:55:27;3.65;;;2.03;;
75649;SDS011;64245;51.282;22.494;2023-03-14T05:57:53;3.17;;;2.38;;
75649;SDS011;64245;51.282;22.494;2023-03-14T06:00:19;6.75;;;1.70;;
75649;SDS011;64245;51.282;22.494;2023-03-14T06:02:45;3.55;;;1.70;;
75649;SDS011;64245;51.282;22.494;2023-03-14T06:05:11;4.63;;;2.85;;
75649;SDS011;64245;51.282;22.494;2023-03-14T06:07:37;3.40;;;2.03;;
75649;SDS011;64245;51.282;22.494;2023-03-14T06:10:03;3.63;;;2.05;;
75649;SDS011;64245;51.282;22.494;2023-03-14T06:12:29;2.33;;;1.73;;
75649;SDS011;64245;51.282;22.494;2023-03-14T06:14:55;3.08;;;1.95;;
75649;SDS011;64245;51.282;22.494;2023-03-14T06:17:20;3.97;;;2.03;;
75649;SDS011;64245;51.282;22.494;2023-03-14T06:19:46;4.88;;;2.60;;
75649;SDS011;64245;51.282;22.494;2023-03-14T06:22:11;5.88;;;2.15;;
75649;SDS011;64245;51.282;22.494;2023-03-14T06:24:37;3.67;;;1.70;;
75649;SDS011;64245;51.282;22.494;2023-03-14T06:27:03;4.35;;;2.50;;
75649;SDS011;64245;51.282;22.494;2023-03-14T06:29:29;2.15;;;1.50;;
75649;SDS011;64245;51.282;22.494;2023-03-14T06:31:54;3.38;;;2.15;;
75649;SDS011;64245;51.282;22.494;2023-03-14T06:34:20;5.63;;;2.97;;
75649;SDS011;64245;51.282;22.494;2023-03-14T06:36:46;4.40;;;1.75;;
75649;SDS011;64245;51.282;22.494;2023-03-14T06:39:12;4.03;;;2.08;;
75649;SDS011;64245;51.282;22.494;2023-03-14T06:41:38;3.00;;;1.92;;
75649;SDS011;64245;51.282;22.494;2023-03-14T06:44:04;2.42;;;1.60;;
75649;SDS011;64245;51.282;22.494;2023-03-14T06:46:30;3.20;;;1.83;;
75649;SDS011;64245;51.282;22.494;2023-03-14T06:48:56;5.05;;;2.50;;
75649;SDS011;64245;51.282;22.494;2023-03-14T06:51:21;3.88;;;1.98;;
75649;SDS011;64245;51.282;22.494;2023-03-14T06:53:47;5.60;;;1.73;;
75649;SDS011;64245;51.282;22.494;2023-03-14T06:56:13;4.47;;;2.28;;
75649;SDS011;64245;51.282;22.494;2023-03-14T06:58:38;3.50;;;2.33;;
75649;SDS011;64245;51.282;22.494;2023-03-14T07:01:04;5.45;;;3.08;;
75649;SDS011;64245;51.282;22.494;2023-03-14T07:03:30;3.10;;;1.70;;
75649;SDS011;64245;51.282;22.494;2023-03-14T07:05:55;4.63;;;2.42;;
75649;SDS011;64245;51.282;22.494;2023-03-14T07:08:21;2.90;;;1.98;;
75649;SDS011;64245;51.282;22.494;2023-03-14T07:10:47;3.72;;;2.17;;
75649;SDS011;64245;51.282;22.494;2023-03-14T07:13:12;2.20;;;1.40;;
75649;SDS011;64245;51.282;22.494;2023-03-14T07:15:38;3.95;;;1.80;;
75649;SDS011;64245;51.282;22.494;2023-03-14T07:18:04;3.70;;;2.00;;
75649;SDS011;64245;51.282;22.494;2023-03-14T07:20:29;3.50;;;2.03;;
75649;SDS011;64245;51.282;22.494;2023-03-14T07:22:57;2.45;;;1.77;;
75649;SDS011;64245;51.282;22.494;2023-03-14T07:25:25;4.50;;;2.53;;
75649;SDS011;64245;51.282;22.494;2023-03-14T07:27:51;3.55;;;1.50;;
75649;SDS011;64245;51.282;22.494;2023-03-14T07:30:16;4.07;;;1.98;;
75649;SDS011;64245;51.282;22.494;2023-03-14T07:32:42;3.40;;;1.88;;
75649;SDS011;64245;51.282;22.494;2023-03-14T07:35:08;3.22;;;2.13;;
75649;SDS011;64245;51.282;22.494;2023-03-14T07:37:34;7.55;;;2.13;;
75649;SDS011;64245;51.282;22.494;2023-03-14T07:39:59;5.30;;;2.95;;
75649;SDS011;64245;51.282;22.494;2023-03-14T07:42:25;6.47;;;2.58;;
75649;SDS011;64245;51.282;22.494;2023-03-14T07:44:51;2.13;;;1.42;;
75649;SDS011;64245;51.282;22.494;2023-03-14T07:47:17;3.65;;;2.05;;
75649;SDS011;64245;51.282;22.494;2023-03-14T07:49:42;4.88;;;2.35;;
75649;SDS011;64245;51.282;22.494;2023-03-14T07:52:08;3.80;;;2.05;;
75649;SDS011;64245;51.282;22.494;2023-03-14T07:54:33;3.25;;;2.08;;
75649;SDS011;64245;51.282;22.494;2023-03-14T07:56:59;5.47;;;1.98;;
75649;SDS011;64245;51.282;22.494;2023-03-14T07:59:26;3.10;;;2.05;;
75649;SDS011;64245;51.282;22.494;2023-03-14T08:01:52;3.08;;;1.73;;
75649;SDS011;64245;51.282;22.494;2023-03-14T08:04:18;3.85;;;2.25;;
75649;SDS011;64245;51.282;22.494;2023-03-14T08:06:43;2.88;;;1.90;;
75649;SDS011;64245;51.282;22.494;2023-03-14T08:09:09;4.38;;;2.00;;
75649;SDS011;64245;51.282;22.494;2023-03-14T08:11:35;4.50;;;2.38;;
75649;SDS011;64245;51.282;22.494;2023-03-14T08:14:00;3.17;;;1.83;;
75649;SDS011;64245;51.282;22.494;2023-03-14T08:16:26;3.20;;;1.90;;
75649;SDS011;64245;51.282;22.494;2023-03-14T08:18:52;4.32;;;2.55;;
75649;SDS011;64245;51.282;22.494;2023-03-14T08:21:17;3.78;;;2.20;;
75649;SDS011;64245;51.282;22.494;2023-03-14T08:23:43;4.97;;;1.95;;
75649;SDS011;64245;51.282;22.494;2023-03-14T08:26:08;2.53;;;1.55;;
75649;SDS011;64245;51.282;22.494;2023-03-14T08:28:34;2.70;;;1.77;;
75649;SDS011;64245;51.282;22.494;2023-03-14T08:31:00;2.28;;;1.83;;
75649;SDS011;64245;51.282;22.494;2023-03-14T08:33:26;3.00;;;1.98;;
75649;SDS011;64245;51.282;22.494;2023-03-14T08:35:57;3.85;;;2.13;;
75649;SDS011;64245;51.282;22.494;2023-03-14T08:38:24;3.65;;;2.00;;
75649;SDS011;64245;51.282;22.494;2023-03-14T08:40:54;3.83;;;2.10;;
75649;SDS011;64245;51.282;22.494;2023-03-14T08:45:51;3.30;;;1.75;;
75649;SDS011;64245;51.282;22.494;2023-03-14T08:48:17;3.10;;;1.88;;
75649;SDS011;64245;51.282;22.494;2023-03-14T08:50:42;3.45;;;2.17;;
75649;SDS011;64245;51.282;22.494;2023-03-14T08:53:08;4.90;;;2.47;;
75649;SDS011;64245;51.282;22.494;2023-03-14T08:55:35;4.45;;;1.90;;
75649;SDS011;64245;51.282;22.494;2023-03-14T08:58:00;4.78;;;2.13;;
75649;SDS011;64245;51.282;22.494;2023-03-14T09:00:26;2.80;;;2.03;;
75649;SDS011;64245;51.282;22.494;2023-03-14T09:02:52;3.53;;;2.08;;
75649;SDS011;64245;51.282;22.494;2023-03-14T09:05:18;2.10;;;1.50;;
75649;SDS011;64245;51.282;22.494;2023-03-14T09:07:43;5.05;;;1.77;;
75649;SDS011;64245;51.282;22.494;2023-03-14T09:10:10;4.47;;;2.08;;
75649;SDS011;64245;51.282;22.494;2023-03-14T09:12:36;4.03;;;2.15;;
75649;SDS011;64245;51.282;22.494;2023-03-14T09:15:02;2.50;;;1.85;;
75649;SDS011;64245;51.282;22.494;2023-03-14T09:17:28;5.18;;;1.92;;
75649;SDS011;64245;51.282;22.494;2023-03-14T09:19:54;3.10;;;1.70;;
75649;SDS011;64245;51.282;22.494;2023-03-14T09:22:20;2.95;;;1.92;;
75649;SDS011;64245;51.282;22.494;2023-03-14T09:24:46;2.47;;;1.80;;
75649;SDS011;64245;51.282;22.494;2023-03-14T09:27:12;3.13;;;1.85;;
75649;SDS011;64245;51.282;22.494;2023-03-14T09:29:38;2.72;;;1.55;;
75649;SDS011;64245;51.282;22.494;2023-03-14T09:32:03;3.78;;;2.03;;
75649;SDS011;64245;51.282;22.494;2023-03-14T09:34:29;5.30;;;1.92;;
75649;SDS011;64245;51.282;22.494;2023-03-14T09:36:55;3.67;;;1.70;;
75649;SDS011;64245;51.282;22.494;2023-03-14T09:39:21;4.45;;;2.10;;
75649;SDS011;64245;51.282;22.494;2023-03-14T09:41:47;2.90;;;1.73;;
75649;SDS011;64245;51.282;22.494;2023-03-14T09:44:31;1.95;;;1.52;;
75649;SDS011;64245;51.282;22.494;2023-03-14T09:47:01;1.65;;;1.33;;
75649;SDS011;64245;51.282;22.494;2023-03-14T09:49:31;5.40;;;2.22;;
75649;SDS011;64245;51.282;22.494;2023-03-14T09:52:00;3.65;;;1.77;;
75649;SDS011;64245;51.282;22.494;2023-03-14T09:54:31;4.97;;;2.20;;
75649;SDS011;64245;51.282;22.494;2023-03-14T09:56:58;3.45;;;1.90;;
75649;SDS011;64245;51.282;22.494;2023-03-14T09:59:23;3.08;;;1.48;;
75649;SDS011;64245;51.282;22.494;2023-03-14T10:01:51;3.03;;;2.10;;
75649;SDS011;64245;51.282;22.494;2023-03-14T10:04:20;2.00;;;1.70;;
75649;SDS011;64245;51.282;22.494;2023-03-14T10:06:50;3.20;;;2.20;;
75649;SDS011;64245;51.282;22.494;2023-03-14T10:09:18;3.20;;;2.40;;
75649;SDS011;64245;51.282;22.494;2023-03-14T10:11:56;3.85;;;1.83;;
75649;SDS011;64245;51.282;22.494;2023-03-14T10:14:32;3.97;;;2.00;;
75649;SDS011;64245;51.282;22.494;2023-03-14T10:17:09;4.15;;;2.05;;
75649;SDS011;64245;51.282;22.494;2023-03-14T10:19:37;2.47;;;1.70;;
75649;SDS011;64245;51.282;22.494;2023-03-14T10:22:26;2.72;;;1.88;;
75649;SDS011;64245;51.282;22.494;2023-03-14T10:24:56;3.45;;;2.20;;
75649;SDS011;64245;51.282;22.494;2023-03-14T10:27:32;5.70;;;2.00;;
75649;SDS011;64245;51.282;22.494;2023-03-14T10:32:28;3.58;;;2.10;;
75649;SDS011;64245;51.282;22.494;2023-03-14T10:35:04;3.35;;;1.65;;
75649;SDS011;64245;51.282;22.494;2023-03-14T10:37:55;2.58;;;1.95;;
75649;SDS011;64245;51.282;22.494;2023-03-14T10:40:24;3.75;;;1.92;;
75649;SDS011;64245;51.282;22.494;2023-03-14T10:42:53;3.80;;;2.17;;
75649;SDS011;64245;51.282;22.494;2023-03-14T10:45:36;2.83;;;1.95;;
75649;SDS011;64245;51.282;22.494;2023-03-14T10:53:40;2.90;;;1.80;;
75649;SDS011;64245;51.282;22.494;2023-03-14T10:56:14;4.88;;;2.72;;
75649;SDS011;64245;51.282;22.494;2023-03-14T10:58:43;4.22;;;2.20;;
75649;SDS011;64245;51.282;22.494;2023-03-14T11:01:36;3.90;;;1.83;;
75649;SDS011;64245;51.282;22.494;2023-03-14T11:04:18;3.65;;;2.08;;
75649;SDS011;64245;51.282;22.494;2023-03-14T11:09:36;3.53;;;2.30;;
75649;SDS011;64245;51.282;22.494;2023-03-14T11:14:52;3.92;;;2.17;;
75649;SDS011;64245;51.282;22.494;2023-03-14T11:22:48;3.83;;;2.00;;
75649;SDS011;64245;51.282;22.494;2023-03-14T11:25:32;4.25;;;2.20;;
75649;SDS011;64245;51.282;22.494;2023-03-14T11:28:14;3.97;;;2.40;;
75649;SDS011;64245;51.282;22.494;2023-03-14T11:33:27;2.97;;;2.13;;
75649;SDS011;64245;51.282;22.494;2023-03-14T11:36:15;3.95;;;1.90;;
75649;SDS011;64245;51.282;22.494;2023-03-14T11:38:51;3.65;;;2.70;;
75649;SDS011;64245;51.282;22.494;2023-03-14T11:41:22;3.85;;;1.90;;
75649;SDS011;64245;51.282;22.494;2023-03-14T11:43:53;3.95;;;2.33;;
75649;SDS011;64245;51.282;22.494;2023-03-14T11:48:59;3.53;;;2.10;;
75649;SDS011;64245;51.282;22.494;2023-03-14T11:51:35;2.65;;;1.98;;
75649;SDS011;64245;51.282;22.494;2023-03-14T11:56:58;2.95;;;1.60;;
75649;SDS011;64245;51.282;22.494;2023-03-14T11:59:44;3.15;;;2.00;;
75649;SDS011;64245;51.282;22.494;2023-03-14T12:02:26;3.80;;;2.20;;
75649;SDS011;64245;51.282;22.494;2023-03-14T12:10:44;3.55;;;2.25;;
75649;SDS011;64245;51.282;22.494;2023-03-14T12:13:14;2.95;;;2.00;;
75649;SDS011;64245;51.282;22.494;2023-03-14T12:18:55;3.28;;;2.15;;
75649;SDS011;64245;51.282;22.494;2023-03-14T12:21:04;4.68;;;2.60;;
75649;SDS011;64245;51.282;22.494;2023-03-14T12:23:51;4.47;;;2.17;;
75649;SDS011;64245;51.282;22.494;2023-03-14T12:26:23;5.43;;;2.45;;
75649;SDS011;64245;51.282;22.494;2023-03-14T12:28:51;3.40;;;2.45;;
75649;SDS011;64245;51.282;22.494;2023-03-14T12:31:40;4.70;;;2.78;;
75649;SDS011;64245;51.282;22.494;2023-03-14T12:45:21;4.75;;;2.60;;
75649;SDS011;64245;51.282;22.494;2023-03-14T12:47:51;6.38;;;2.97;;
75649;SDS011;64245;51.282;22.494;2023-03-14T12:50:30;4.75;;;2.55;;
75649;SDS011;64245;51.282;22.494;2023-03-14T12:53:12;5.53;;;2.22;;
75649;SDS011;64245;51.282;22.494;2023-03-14T12:56:04;5.50;;;2.30;;
75649;SDS011;64245;51.282;22.494;2023-03-14T13:01:27;3.10;;;2.17;;
75649;SDS011;64245;51.282;22.494;2023-03-14T13:06:44;3.42;;;2.10;;
75649;SDS011;64245;51.282;22.494;2023-03-14T13:12:00;6.13;;;2.38;;
75649;SDS011;64245;51.282;22.494;2023-03-14T13:14:28;6.57;;;2.30;;
75649;SDS011;64245;51.282;22.494;2023-03-14T13:16:59;3.08;;;2.10;;
75649;SDS011;64245;51.282;22.494;2023-03-14T13:19:26;3.42;;;2.42;;
75649;SDS011;64245;51.282;22.494;2023-03-14T13:22:02;2.88;;;2.10;;
75649;SDS011;64245;51.282;22.494;2023-03-14T13:24:32;4.18;;;2.65;;
75649;SDS011;64245;51.282;22.494;2023-03-14T13:26:59;4.57;;;2.47;;
75649;SDS011;64245;51.282;22.494;2023-03-14T13:29:27;2.10;;;1.90;;
75649;SDS011;64245;51.282;22.494;2023-03-14T13:31:57;4.35;;;2.40;;
75649;SDS011;64245;51.282;22.494;2023-03-14T13:34:28;5.25;;;2.90;;
75649;SDS011;64245;51.282;22.494;2023-03-14T13:36:55;5.47;;;2.70;;
75649;SDS011;64245;51.282;22.494;2023-03-14T13:39:22;5.65;;;2.92;;
75649;SDS011;64245;51.282;22.494;2023-03-14T13:41:54;5.78;;;3.33;;
75649;SDS011;64245;51.282;22.494;2023-03-14T13:47:02;7.53;;;3.15;;
75649;SDS011;64245;51.282;22.494;2023-03-14T13:49:30;4.57;;;3.00;;
75649;SDS011;64245;51.282;22.494;2023-03-14T13:52:00;7.85;;;2.85;;
75649;SDS011;64245;51.282;22.494;2023-03-14T13:54:27;5.68;;;3.20;;
75649;SDS011;64245;51.282;22.494;2023-03-14T13:57:00;4.70;;;2.70;;
75649;SDS011;64245;51.282;22.494;2023-03-14T13:59:29;5.53;;;3.33;;
75649;SDS011;64245;51.282;22.494;2023-03-14T14:01:55;5.47;;;2.55;;
75649;SDS011;64245;51.282;22.494;2023-03-14T14:04:24;7.10;;;3.20;;
75649;SDS011;64245;51.282;22.494;2023-03-14T14:06:58;4.95;;;2.85;;
75649;SDS011;64245;51.282;22.494;2023-03-14T14:15:03;3.90;;;2.75;;
75649;SDS011;64245;51.282;22.494;2023-03-14T14:17:38;2.80;;;2.20;;
75649;SDS011;64245;51.282;22.494;2023-03-14T14:23:03;4.55;;;2.90;;
75649;SDS011;64245;51.282;22.494;2023-03-14T14:25:30;5.95;;;3.65;;
75649;SDS011;64245;51.282;22.494;2023-03-14T14:27:56;5.53;;;3.13;;
75649;SDS011;64245;51.282;22.494;2023-03-14T14:30:27;10.13;;;3.97;;
75649;SDS011;64245;51.282;22.494;2023-03-14T14:33:17;9.07;;;3.65;;
75649;SDS011;64245;51.282;22.494;2023-03-14T14:35:51;6.32;;;2.70;;
75649;SDS011;64245;51.282;22.494;2023-03-14T14:38:21;8.38;;;3.38;;
75649;SDS011;64245;51.282;22.494;2023-03-14T14:40:48;7.13;;;3.35;;
75649;SDS011;64245;51.282;22.494;2023-03-14T14:43:17;5.00;;;3.28;;
75649;SDS011;64245;51.282;22.494;2023-03-14T14:45:49;6.45;;;3.80;;
75649;SDS011;64245;51.282;22.494;2023-03-14T14:53:31;10.18;;;3.97;;
75649;SDS011;64245;51.282;22.494;2023-03-14T14:56:16;7.70;;;3.97;;
75649;SDS011;64245;51.282;22.494;2023-03-14T14:58:51;8.05;;;4.28;;
75649;SDS011;64245;51.282;22.494;2023-03-14T15:01:23;11.35;;;4.90;;
75649;SDS011;64245;51.282;22.494;2023-03-14T15:03:52;8.88;;;5.00;;
75649;SDS011;64245;51.282;22.494;2023-03-14T15:06:19;7.40;;;4.53;;
75649;SDS011;64245;51.282;22.494;2023-03-14T15:08:46;9.80;;;4.70;;
75649;SDS011;64245;51.282;22.494;2023-03-14T15:11:15;10.18;;;4.90;;
75649;SDS011;64245;51.282;22.494;2023-03-14T15:13:43;8.57;;;4.43;;
75649;SDS011;64245;51.282;22.494;2023-03-14T15:16:10;10.13;;;4.72;;
75649;SDS011;64245;51.282;22.494;2023-03-14T15:18:37;9.02;;;4.75;;
75649;SDS011;64245;51.282;22.494;2023-03-14T15:21:03;8.75;;;4.60;;
75649;SDS011;64245;51.282;22.494;2023-03-14T15:23:28;10.00;;;5.20;;
75649;SDS011;64245;51.282;22.494;2023-03-14T15:25:54;12.65;;;5.45;;
75649;SDS011;64245;51.282;22.494;2023-03-14T15:28:21;9.52;;;5.10;;
75649;SDS011;64245;51.282;22.494;2023-03-14T15:30:52;13.55;;;6.60;;
75649;SDS011;64245;51.282;22.494;2023-03-14T15:33:19;16.52;;;8.70;;
75649;SDS011;64245;51.282;22.494;2023-03-14T15:35:46;15.02;;;7.93;;
75649;SDS011;64245;51.282;22.494;2023-03-14T15:38:13;14.25;;;7.90;;
75649;SDS011;64245;51.282;22.494;2023-03-14T15:40:40;15.73;;;7.18;;
75649;SDS011;64245;51.282;22.494;2023-03-14T15:43:07;15.15;;;7.25;;
75649;SDS011;64245;51.282;22.494;2023-03-14T15:45:32;14.88;;;7.32;;
75649;SDS011;64245;51.282;22.494;2023-03-14T15:47:58;14.65;;;6.82;;
75649;SDS011;64245;51.282;22.494;2023-03-14T15:50:24;15.07;;;7.57;;
75649;SDS011;64245;51.282;22.494;2023-03-14T15:52:51;12.90;;;7.03;;
75649;SDS011;64245;51.282;22.494;2023-03-14T15:55:16;11.50;;;7.05;;
75649;SDS011;64245;51.282;22.494;2023-03-14T15:57:43;13.50;;;7.25;;
75649;SDS011;64245;51.282;22.494;2023-03-14T16:00:14;15.23;;;8.43;;
75649;SDS011;64245;51.282;22.494;2023-03-14T16:02:43;16.25;;;8.57;;
75649;SDS011;64245;51.282;22.494;2023-03-14T16:05:10;15.50;;;8.63;;
75649;SDS011;64245;51.282;22.494;2023-03-14T16:07:37;19.33;;;9.30;;